sensor_id;sensor_type;location;lat;lon;timestamp;P1;durP1;ratioP1;P2;durP2;ratioP2
53503;SDS011;39387;50.998;22.340;2022-08-21T00:00:23;6.70;;;4.93;;
53503;SDS011;39387;50.998;22.340;2022-08-21T00:03:05;6.90;;;4.82;;
53503;SDS011;39387;50.998;22.340;2022-08-21T00:05:36;5.70;;;4.50;;
53503;SDS011;39387;50.998;22.340;2022-08-21T00:08:11;4.95;;;4.10;;
53503;SDS011;39387;50.998;22.340;2022-08-21T00:10:43;4.72;;;4.13;;
53503;SDS011;39387;50.998;22.340;2022-08-21T00:13:14;5.13;;;4.60;;
53503;SDS011;39387;50.998;22.340;2022-08-21T00:15:48;5.28;;;4.55;;
53503;SDS011;39387;50.998;22.340;2022-08-21T00:18:16;5.65;;;4.88;;
53503;SDS011;39387;50.998;22.340;2022-08-21T00:20:45;6.78;;;5.07;;
53503;SDS011;39387;50.998;22.340;2022-08-21T00:23:13;5.95;;;4.78;;
53503;SDS011;39387;50.998;22.340;2022-08-21T00:25:41;7.50;;;5.20;;
53503;SDS011;39387;50.998;22.340;2022-08-21T00:28:09;6.05;;;4.90;;
53503;SDS011;39387;50.998;22.340;2022-08-21T00:30:38;5.13;;;4.60;;
53503;SDS011;39387;50.998;22.340;2022-08-21T00:33:07;5.72;;;4.90;;
53503;SDS011;39387;50.998;22.340;2022-08-21T00:35:36;5.70;;;4.95;;
53503;SDS011;39387;50.998;22.340;2022-08-21T00:38:05;7.10;;;4.75;;
53503;SDS011;39387;50.998;22.340;2022-08-21T00:40:35;6.10;;;4.53;;
53503;SDS011;39387;50.998;22.340;2022-08-21T00:43:05;5.63;;;4.88;;
53503;SDS011;39387;50.998;22.340;2022-08-21T00:45:35;5.72;;;4.82;;
53503;SDS011;39387;50.998;22.340;2022-08-21T00:48:05;8.30;;;5.40;;
53503;SDS011;39387;50.998;22.340;2022-08-21T00:50:38;6.75;;;5.72;;
53503;SDS011;39387;50.998;22.340;2022-08-21T00:53:08;7.03;;;5.50;;
53503;SDS011;39387;50.998;22.340;2022-08-21T00:55:37;6.32;;;5.50;;
53503;SDS011;39387;50.998;22.340;2022-08-21T00:58:06;6.50;;;5.28;;
53503;SDS011;39387;50.998;22.340;2022-08-21T01:00:38;8.15;;;5.80;;
53503;SDS011;39387;50.998;22.340;2022-08-21T01:03:10;7.20;;;5.75;;
53503;SDS011;39387;50.998;22.340;2022-08-21T01:05:39;6.90;;;5.43;;
53503;SDS011;39387;50.998;22.340;2022-08-21T01:08:07;8.32;;;6.47;;
53503;SDS011;39387;50.998;22.340;2022-08-21T01:10:34;7.40;;;5.57;;
53503;SDS011;39387;50.998;22.340;2022-08-21T01:13:04;8.40;;;6.45;;
53503;SDS011;39387;50.998;22.340;2022-08-21T01:15:35;8.27;;;6.35;;
53503;SDS011;39387;50.998;22.340;2022-08-21T01:20:34;7.70;;;5.78;;
53503;SDS011;39387;50.998;22.340;2022-08-21T01:23:04;6.68;;;5.43;;
53503;SDS011;39387;50.998;22.340;2022-08-21T01:25:32;8.07;;;6.07;;
53503;SDS011;39387;50.998;22.340;2022-08-21T01:28:02;7.43;;;6.10;;
53503;SDS011;39387;50.998;22.340;2022-08-21T01:30:33;7.80;;;5.93;;
53503;SDS011;39387;50.998;22.340;2022-08-21T01:33:02;7.47;;;5.75;;
53503;SDS011;39387;50.998;22.340;2022-08-21T01:35:29;7.75;;;5.63;;
53503;SDS011;39387;50.998;22.340;2022-08-21T01:37:57;7.97;;;5.95;;
53503;SDS011;39387;50.998;22.340;2022-08-21T01:40:26;9.52;;;5.90;;
53503;SDS011;39387;50.998;22.340;2022-08-21T01:42:54;7.32;;;6.18;;
53503;SDS011;39387;50.998;22.340;2022-08-21T01:45:22;8.00;;;6.38;;
53503;SDS011;39387;50.998;22.340;2022-08-21T01:47:49;8.85;;;6.57;;
53503;SDS011;39387;50.998;22.340;2022-08-21T01:50:17;9.00;;;6.50;;
53503;SDS011;39387;50.998;22.340;2022-08-21T01:52:46;8.88;;;6.43;;
53503;SDS011;39387;50.998;22.340;2022-08-21T01:55:14;8.27;;;6.25;;
53503;SDS011;39387;50.998;22.340;2022-08-21T01:57:45;9.95;;;7.10;;
53503;SDS011;39387;50.998;22.340;2022-08-21T02:00:14;9.02;;;6.35;;
53503;SDS011;39387;50.998;22.340;2022-08-21T02:02:43;9.18;;;7.00;;
53503;SDS011;39387;50.998;22.340;2022-08-21T02:05:10;9.20;;;6.78;;
53503;SDS011;39387;50.998;22.340;2022-08-21T02:07:39;8.98;;;6.72;;
53503;SDS011;39387;50.998;22.340;2022-08-21T02:10:08;8.25;;;6.53;;
53503;SDS011;39387;50.998;22.340;2022-08-21T02:12:36;8.15;;;6.55;;
53503;SDS011;39387;50.998;22.340;2022-08-21T02:15:06;7.93;;;6.35;;
53503;SDS011;39387;50.998;22.340;2022-08-21T02:17:38;10.40;;;6.80;;
53503;SDS011;39387;50.998;22.340;2022-08-21T02:20:08;7.80;;;6.32;;
53503;SDS011;39387;50.998;22.340;2022-08-21T02:22:36;8.90;;;6.47;;
53503;SDS011;39387;50.998;22.340;2022-08-21T02:25:04;9.60;;;6.43;;
53503;SDS011;39387;50.998;22.340;2022-08-21T02:27:37;7.22;;;6.03;;
53503;SDS011;39387;50.998;22.340;2022-08-21T02:30:07;10.63;;;6.90;;
53503;SDS011;39387;50.998;22.340;2022-08-21T02:32:36;9.93;;;6.70;;
53503;SDS011;39387;50.998;22.340;2022-08-21T02:35:04;9.30;;;6.82;;
53503;SDS011;39387;50.998;22.340;2022-08-21T02:37:32;7.75;;;6.50;;
53503;SDS011;39387;50.998;22.340;2022-08-21T02:40:00;7.45;;;6.38;;
53503;SDS011;39387;50.998;22.340;2022-08-21T02:42:28;8.65;;;6.50;;
53503;SDS011;39387;50.998;22.340;2022-08-21T02:44:55;8.02;;;6.50;;
53503;SDS011;39387;50.998;22.340;2022-08-21T02:47:24;8.07;;;6.53;;
53503;SDS011;39387;50.998;22.340;2022-08-21T02:49:52;9.45;;;6.68;;
53503;SDS011;39387;50.998;22.340;2022-08-21T02:52:19;9.18;;;6.63;;
53503;SDS011;39387;50.998;22.340;2022-08-21T02:54:49;7.00;;;5.80;;
53503;SDS011;39387;50.998;22.340;2022-08-21T02:57:17;8.45;;;6.20;;
53503;SDS011;39387;50.998;22.340;2022-08-21T02:59:44;8.60;;;6.70;;
53503;SDS011;39387;50.998;22.340;2022-08-21T03:02:12;8.80;;;6.35;;
53503;SDS011;39387;50.998;22.340;2022-08-21T03:04:41;10.13;;;7.18;;
53503;SDS011;39387;50.998;22.340;2022-08-21T03:07:09;9.05;;;6.57;;
53503;SDS011;39387;50.998;22.340;2022-08-21T03:09:37;8.55;;;6.53;;
53503;SDS011;39387;50.998;22.340;2022-08-21T03:12:04;8.73;;;6.90;;
53503;SDS011;39387;50.998;22.340;2022-08-21T03:14:32;8.68;;;6.68;;
53503;SDS011;39387;50.998;22.340;2022-08-21T03:16:59;8.18;;;6.97;;
53503;SDS011;39387;50.998;22.340;2022-08-21T03:19:27;8.00;;;6.53;;
53503;SDS011;39387;50.998;22.340;2022-08-21T03:21:56;10.05;;;6.93;;
53503;SDS011;39387;50.998;22.340;2022-08-21T03:24:23;10.52;;;7.18;;
53503;SDS011;39387;50.998;22.340;2022-08-21T03:26:51;8.80;;;7.28;;
53503;SDS011;39387;50.998;22.340;2022-08-21T03:29:19;10.38;;;7.35;;
53503;SDS011;39387;50.998;22.340;2022-08-21T03:31:46;11.13;;;8.25;;
53503;SDS011;39387;50.998;22.340;2022-08-21T03:34:14;11.25;;;7.65;;
53503;SDS011;39387;50.998;22.340;2022-08-21T03:36:41;9.10;;;7.30;;
53503;SDS011;39387;50.998;22.340;2022-08-21T03:39:10;8.90;;;7.50;;
53503;SDS011;39387;50.998;22.340;2022-08-21T03:41:37;10.70;;;7.82;;
53503;SDS011;39387;50.998;22.340;2022-08-21T03:44:05;11.38;;;8.32;;
53503;SDS011;39387;50.998;22.340;2022-08-21T03:46:33;10.73;;;7.65;;
53503;SDS011;39387;50.998;22.340;2022-08-21T03:49:00;11.73;;;8.20;;
53503;SDS011;39387;50.998;22.340;2022-08-21T03:51:28;11.07;;;7.47;;
53503;SDS011;39387;50.998;22.340;2022-08-21T03:53:57;13.30;;;8.90;;
53503;SDS011;39387;50.998;22.340;2022-08-21T03:56:26;12.13;;;8.27;;
53503;SDS011;39387;50.998;22.340;2022-08-21T03:58:54;11.80;;;8.07;;
53503;SDS011;39387;50.998;22.340;2022-08-21T04:01:21;10.38;;;8.23;;
53503;SDS011;39387;50.998;22.340;2022-08-21T04:03:49;10.05;;;7.65;;
53503;SDS011;39387;50.998;22.340;2022-08-21T04:06:16;10.38;;;7.90;;
53503;SDS011;39387;50.998;22.340;2022-08-21T04:08:44;11.75;;;8.65;;
53503;SDS011;39387;50.998;22.340;2022-08-21T04:11:11;11.25;;;8.25;;
53503;SDS011;39387;50.998;22.340;2022-08-21T04:13:41;10.82;;;8.38;;
53503;SDS011;39387;50.998;22.340;2022-08-21T04:16:09;11.48;;;8.32;;
53503;SDS011;39387;50.998;22.340;2022-08-21T04:18:36;10.75;;;8.73;;
53503;SDS011;39387;50.998;22.340;2022-08-21T04:21:04;10.95;;;8.63;;
53503;SDS011;39387;50.998;22.340;2022-08-21T04:23:32;12.07;;;8.98;;
53503;SDS011;39387;50.998;22.340;2022-08-21T04:26:00;10.70;;;8.52;;
53503;SDS011;39387;50.998;22.340;2022-08-21T04:28:27;10.77;;;7.78;;
53503;SDS011;39387;50.998;22.340;2022-08-21T04:30:56;10.15;;;8.13;;
53503;SDS011;39387;50.998;22.340;2022-08-21T04:33:24;9.93;;;7.80;;
53503;SDS011;39387;50.998;22.340;2022-08-21T04:35:51;9.05;;;8.13;;
53503;SDS011;39387;50.998;22.340;2022-08-21T04:38:19;10.20;;;8.40;;
53503;SDS011;39387;50.998;22.340;2022-08-21T04:40:47;11.45;;;8.15;;
53503;SDS011;39387;50.998;22.340;2022-08-21T04:43:15;11.70;;;9.27;;
53503;SDS011;39387;50.998;22.340;2022-08-21T04:45:44;11.90;;;9.75;;
53503;SDS011;39387;50.998;22.340;2022-08-21T04:48:19;8.55;;;7.70;;
53503;SDS011;39387;50.998;22.340;2022-08-21T04:50:50;7.75;;;6.95;;
53503;SDS011;39387;50.998;22.340;2022-08-21T04:55:48;6.70;;;6.00;;
53503;SDS011;39387;50.998;22.340;2022-08-21T04:58:19;6.57;;;5.93;;
53503;SDS011;39387;50.998;22.340;2022-08-21T05:00:47;6.72;;;5.68;;
53503;SDS011;39387;50.998;22.340;2022-08-21T05:03:20;6.88;;;5.88;;
53503;SDS011;39387;50.998;22.340;2022-08-21T05:05:48;7.00;;;6.30;;
53503;SDS011;39387;50.998;22.340;2022-08-21T05:08:16;6.22;;;5.60;;
53503;SDS011;39387;50.998;22.340;2022-08-21T05:10:46;5.60;;;5.10;;
53503;SDS011;39387;50.998;22.340;2022-08-21T05:13:17;6.55;;;5.18;;
53503;SDS011;39387;50.998;22.340;2022-08-21T05:15:45;6.60;;;5.22;;
53503;SDS011;39387;50.998;22.340;2022-08-21T05:18:13;6.95;;;4.90;;
53503;SDS011;39387;50.998;22.340;2022-08-21T05:20:42;5.90;;;5.30;;
53503;SDS011;39387;50.998;22.340;2022-08-21T05:23:12;5.53;;;5.03;;
53503;SDS011;39387;50.998;22.340;2022-08-21T05:25:41;6.85;;;5.45;;
53503;SDS011;39387;50.998;22.340;2022-08-21T05:28:09;6.93;;;5.40;;
53503;SDS011;39387;50.998;22.340;2022-08-21T05:30:40;6.07;;;5.47;;
53503;SDS011;39387;50.998;22.340;2022-08-21T05:33:09;6.88;;;5.72;;
53503;SDS011;39387;50.998;22.340;2022-08-21T05:35:37;6.18;;;5.55;;
53503;SDS011;39387;50.998;22.340;2022-08-21T05:38:06;6.50;;;5.60;;
53503;SDS011;39387;50.998;22.340;2022-08-21T05:40:34;6.15;;;5.55;;
53503;SDS011;39387;50.998;22.340;2022-08-21T05:43:01;6.35;;;5.75;;
53503;SDS011;39387;50.998;22.340;2022-08-21T05:45:30;6.40;;;5.75;;
53503;SDS011;39387;50.998;22.340;2022-08-21T05:48:05;6.32;;;5.72;;
53503;SDS011;39387;50.998;22.340;2022-08-21T05:50:35;6.10;;;5.03;;
53503;SDS011;39387;50.998;22.340;2022-08-21T05:53:04;5.88;;;5.28;;
53503;SDS011;39387;50.998;22.340;2022-08-21T05:55:32;5.90;;;5.40;;
53503;SDS011;39387;50.998;22.340;2022-08-21T05:58:00;6.45;;;5.10;;
53503;SDS011;39387;50.998;22.340;2022-08-21T06:00:27;9.38;;;6.18;;
53503;SDS011;39387;50.998;22.340;2022-08-21T06:02:55;8.57;;;6.18;;
53503;SDS011;39387;50.998;22.340;2022-08-21T06:05:22;6.60;;;5.85;;
53503;SDS011;39387;50.998;22.340;2022-08-21T06:07:50;7.22;;;6.03;;
53503;SDS011;39387;50.998;22.340;2022-08-21T06:10:19;6.63;;;5.90;;
53503;SDS011;39387;50.998;22.340;2022-08-21T06:12:47;6.30;;;5.53;;
53503;SDS011;39387;50.998;22.340;2022-08-21T06:15:20;6.47;;;5.72;;
53503;SDS011;39387;50.998;22.340;2022-08-21T06:17:48;6.55;;;5.85;;
53503;SDS011;39387;50.998;22.340;2022-08-21T06:20:16;6.15;;;5.40;;
53503;SDS011;39387;50.998;22.340;2022-08-21T06:22:43;5.95;;;5.35;;
53503;SDS011;39387;50.998;22.340;2022-08-21T06:25:11;6.45;;;5.57;;
53503;SDS011;39387;50.998;22.340;2022-08-21T06:27:40;6.28;;;5.50;;
53503;SDS011;39387;50.998;22.340;2022-08-21T06:30:08;5.68;;;5.07;;
53503;SDS011;39387;50.998;22.340;2022-08-21T06:32:36;6.55;;;5.63;;
53503;SDS011;39387;50.998;22.340;2022-08-21T06:35:04;6.07;;;5.22;;
53503;SDS011;39387;50.998;22.340;2022-08-21T06:37:33;5.70;;;5.10;;
53503;SDS011;39387;50.998;22.340;2022-08-21T06:40:00;5.90;;;5.10;;
53503;SDS011;39387;50.998;22.340;2022-08-21T06:42:28;6.13;;;5.53;;
53503;SDS011;39387;50.998;22.340;2022-08-21T06:44:57;6.50;;;5.43;;
53503;SDS011;39387;50.998;22.340;2022-08-21T06:47:25;5.90;;;5.30;;
53503;SDS011;39387;50.998;22.340;2022-08-21T06:49:58;6.30;;;5.65;;
53503;SDS011;39387;50.998;22.340;2022-08-21T06:52:30;5.82;;;5.22;;
53503;SDS011;39387;50.998;22.340;2022-08-21T06:54:58;7.22;;;5.85;;
53503;SDS011;39387;50.998;22.340;2022-08-21T06:57:26;7.82;;;5.65;;
53503;SDS011;39387;50.998;22.340;2022-08-21T06:59:53;5.88;;;5.38;;
53503;SDS011;39387;50.998;22.340;2022-08-21T07:02:22;6.03;;;5.43;;
53503;SDS011;39387;50.998;22.340;2022-08-21T07:04:50;6.00;;;5.38;;
53503;SDS011;39387;50.998;22.340;2022-08-21T07:07:18;6.22;;;5.63;;
53503;SDS011;39387;50.998;22.340;2022-08-21T07:09:45;6.10;;;5.47;;
53503;SDS011;39387;50.998;22.340;2022-08-21T07:12:12;5.68;;;5.07;;
53503;SDS011;39387;50.998;22.340;2022-08-21T07:14:40;5.68;;;5.15;;
53503;SDS011;39387;50.998;22.340;2022-08-21T07:17:08;5.97;;;4.75;;
53503;SDS011;39387;50.998;22.340;2022-08-21T07:19:36;6.10;;;5.50;;
53503;SDS011;39387;50.998;22.340;2022-08-21T07:22:04;5.82;;;5.25;;
53503;SDS011;39387;50.998;22.340;2022-08-21T07:24:32;6.15;;;4.70;;
53503;SDS011;39387;50.998;22.340;2022-08-21T07:26:59;6.05;;;4.72;;
53503;SDS011;39387;50.998;22.340;2022-08-21T07:29:27;5.22;;;4.72;;
53503;SDS011;39387;50.998;22.340;2022-08-21T07:31:54;6.38;;;4.70;;
53503;SDS011;39387;50.998;22.340;2022-08-21T07:34:22;4.97;;;4.18;;
53503;SDS011;39387;50.998;22.340;2022-08-21T07:36:51;5.10;;;4.60;;
53503;SDS011;39387;50.998;22.340;2022-08-21T07:39:18;5.15;;;4.65;;
53503;SDS011;39387;50.998;22.340;2022-08-21T07:41:46;5.47;;;4.38;;
53503;SDS011;39387;50.998;22.340;2022-08-21T07:44:14;5.13;;;4.63;;
53503;SDS011;39387;50.998;22.340;2022-08-21T07:46:41;4.53;;;3.97;;
53503;SDS011;39387;50.998;22.340;2022-08-21T07:49:08;5.43;;;4.53;;
53503;SDS011;39387;50.998;22.340;2022-08-21T07:51:36;4.93;;;4.43;;
53503;SDS011;39387;50.998;22.340;2022-08-21T07:54:05;5.05;;;4.40;;
53503;SDS011;39387;50.998;22.340;2022-08-21T07:56:35;5.00;;;4.50;;
53503;SDS011;39387;50.998;22.340;2022-08-21T07:59:02;5.00;;;4.50;;
53503;SDS011;39387;50.998;22.340;2022-08-21T08:01:30;4.65;;;4.22;;
53503;SDS011;39387;50.998;22.340;2022-08-21T08:03:57;5.13;;;4.60;;
53503;SDS011;39387;50.998;22.340;2022-08-21T08:06:27;4.60;;;4.20;;
53503;SDS011;39387;50.998;22.340;2022-08-21T08:08:54;4.85;;;4.43;;
53503;SDS011;39387;50.998;22.340;2022-08-21T08:11:24;5.75;;;5.03;;
53503;SDS011;39387;50.998;22.340;2022-08-21T08:13:51;4.93;;;4.53;;
53503;SDS011;39387;50.998;22.340;2022-08-21T08:16:19;4.70;;;4.30;;
53503;SDS011;39387;50.998;22.340;2022-08-21T08:18:46;4.78;;;4.38;;
53503;SDS011;39387;50.998;22.340;2022-08-21T08:21:14;4.90;;;4.35;;
53503;SDS011;39387;50.998;22.340;2022-08-21T08:23:44;4.82;;;4.40;;
53503;SDS011;39387;50.998;22.340;2022-08-21T08:26:11;4.40;;;4.00;;
53503;SDS011;39387;50.998;22.340;2022-08-21T08:28:42;4.65;;;4.25;;
53503;SDS011;39387;50.998;22.340;2022-08-21T08:31:12;4.72;;;4.28;;
53503;SDS011;39387;50.998;22.340;2022-08-21T08:33:39;4.47;;;4.07;;
53503;SDS011;39387;50.998;22.340;2022-08-21T08:36:12;5.18;;;4.25;;
53503;SDS011;39387;50.998;22.340;2022-08-21T08:38:41;4.05;;;3.65;;
53503;SDS011;39387;50.998;22.340;2022-08-21T08:41:10;3.90;;;3.60;;
53503;SDS011;39387;50.998;22.340;2022-08-21T08:43:40;4.35;;;3.95;;
53503;SDS011;39387;50.998;22.340;2022-08-21T08:46:16;4.30;;;3.95;;
53503;SDS011;39387;50.998;22.340;2022-08-21T08:48:47;4.93;;;4.47;;
53503;SDS011;39387;50.998;22.340;2022-08-21T08:51:19;4.40;;;4.00;;
53503;SDS011;39387;50.998;22.340;2022-08-21T08:53:51;4.30;;;3.90;;
53503;SDS011;39387;50.998;22.340;2022-08-21T08:56:22;4.70;;;4.30;;
53503;SDS011;39387;50.998;22.340;2022-08-21T08:58:55;4.20;;;3.80;;
53503;SDS011;39387;50.998;22.340;2022-08-21T09:01:26;4.20;;;3.80;;
53503;SDS011;39387;50.998;22.340;2022-08-21T09:03:53;4.05;;;3.75;;
53503;SDS011;39387;50.998;22.340;2022-08-21T09:06:25;5.25;;;3.88;;
53503;SDS011;39387;50.998;22.340;2022-08-21T09:09:02;4.20;;;3.70;;
53503;SDS011;39387;50.998;22.340;2022-08-21T09:11:36;3.90;;;3.55;;
53503;SDS011;39387;50.998;22.340;2022-08-21T09:14:12;4.82;;;3.55;;
53503;SDS011;39387;50.998;22.340;2022-08-21T09:16:46;4.25;;;3.85;;
53503;SDS011;39387;50.998;22.340;2022-08-21T09:19:23;4.50;;;4.10;;
53503;SDS011;39387;50.998;22.340;2022-08-21T09:22:00;4.97;;;4.32;;
53503;SDS011;39387;50.998;22.340;2022-08-21T09:24:32;4.53;;;4.13;;
53503;SDS011;39387;50.998;22.340;2022-08-21T09:27:04;5.13;;;4.32;;
53503;SDS011;39387;50.998;22.340;2022-08-21T09:29:37;4.40;;;4.00;;
53503;SDS011;39387;50.998;22.340;2022-08-21T09:32:09;4.38;;;3.70;;
53503;SDS011;39387;50.998;22.340;2022-08-21T09:34:38;4.75;;;4.05;;
53503;SDS011;39387;50.998;22.340;2022-08-21T09:37:14;4.95;;;3.75;;
53503;SDS011;39387;50.998;22.340;2022-08-21T09:39:43;5.10;;;4.32;;
53503;SDS011;39387;50.998;22.340;2022-08-21T09:42:11;4.75;;;3.50;;
53503;SDS011;39387;50.998;22.340;2022-08-21T09:44:40;3.78;;;3.47;;
53503;SDS011;39387;50.998;22.340;2022-08-21T09:47:10;4.10;;;3.80;;
53503;SDS011;39387;50.998;22.340;2022-08-21T09:49:40;4.47;;;3.72;;
53503;SDS011;39387;50.998;22.340;2022-08-21T09:54:43;4.28;;;3.40;;
53503;SDS011;39387;50.998;22.340;2022-08-21T09:57:12;4.18;;;3.75;;
53503;SDS011;39387;50.998;22.340;2022-08-21T10:00:08;3.90;;;3.50;;
53503;SDS011;39387;50.998;22.340;2022-08-21T10:02:37;4.32;;;3.92;;
53503;SDS011;39387;50.998;22.340;2022-08-21T10:05:08;4.80;;;3.90;;
53503;SDS011;39387;50.998;22.340;2022-08-21T10:07:44;4.43;;;4.10;;
53503;SDS011;39387;50.998;22.340;2022-08-21T10:10:18;4.20;;;3.90;;
53503;SDS011;39387;50.998;22.340;2022-08-21T10:12:49;4.18;;;3.88;;
53503;SDS011;39387;50.998;22.340;2022-08-21T10:15:29;5.10;;;3.63;;
53503;SDS011;39387;50.998;22.340;2022-08-21T10:18:03;4.32;;;3.92;;
53503;SDS011;39387;50.998;22.340;2022-08-21T10:20:36;3.70;;;3.40;;
53503;SDS011;39387;50.998;22.340;2022-08-21T10:23:10;4.22;;;3.33;;
53503;SDS011;39387;50.998;22.340;2022-08-21T10:25:55;3.42;;;3.20;;
53503;SDS011;39387;50.998;22.340;2022-08-21T10:28:26;4.05;;;3.65;;
53503;SDS011;39387;50.998;22.340;2022-08-21T10:31:00;3.67;;;3.33;;
53503;SDS011;39387;50.998;22.340;2022-08-21T10:33:33;4.05;;;3.50;;
53503;SDS011;39387;50.998;22.340;2022-08-21T10:36:06;3.60;;;3.30;;
53503;SDS011;39387;50.998;22.340;2022-08-21T10:38:46;5.40;;;4.10;;
53503;SDS011;39387;50.998;22.340;2022-08-21T10:41:22;3.42;;;3.13;;
53503;SDS011;39387;50.998;22.340;2022-08-21T10:43:59;3.65;;;3.35;;
53503;SDS011;39387;50.998;22.340;2022-08-21T10:46:36;3.85;;;3.50;;
53503;SDS011;39387;50.998;22.340;2022-08-21T10:49:12;5.82;;;3.90;;
53503;SDS011;39387;50.998;22.340;2022-08-21T10:51:46;3.63;;;3.33;;
53503;SDS011;39387;50.998;22.340;2022-08-21T10:54:22;4.63;;;4.25;;
53503;SDS011;39387;50.998;22.340;2022-08-21T10:56:58;4.40;;;4.00;;
53503;SDS011;39387;50.998;22.340;2022-08-21T10:59:28;4.20;;;3.83;;
53503;SDS011;39387;50.998;22.340;2022-08-21T11:02:02;4.30;;;4.00;;
53503;SDS011;39387;50.998;22.340;2022-08-21T11:04:48;4.40;;;4.00;;
53503;SDS011;39387;50.998;22.340;2022-08-21T11:07:20;4.20;;;3.80;;
53503;SDS011;39387;50.998;22.340;2022-08-21T11:09:52;4.70;;;4.30;;
53503;SDS011;39387;50.998;22.340;2022-08-21T11:12:23;4.28;;;3.88;;
53503;SDS011;39387;50.998;22.340;2022-08-21T11:14:54;4.70;;;4.10;;
53503;SDS011;39387;50.998;22.340;2022-08-21T11:17:29;4.68;;;4.03;;
53503;SDS011;39387;50.998;22.340;2022-08-21T11:20:03;4.63;;;3.95;;
53503;SDS011;39387;50.998;22.340;2022-08-21T11:22:33;4.50;;;4.10;;
53503;SDS011;39387;50.998;22.340;2022-08-21T11:25:06;4.30;;;3.90;;
53503;SDS011;39387;50.998;22.340;2022-08-21T11:27:38;5.03;;;4.53;;
53503;SDS011;39387;50.998;22.340;2022-08-21T11:30:09;4.22;;;3.90;;
53503;SDS011;39387;50.998;22.340;2022-08-21T11:32:45;4.40;;;4.00;;
53503;SDS011;39387;50.998;22.340;2022-08-21T11:35:27;5.13;;;4.40;;
53503;SDS011;39387;50.998;22.340;2022-08-21T11:38:02;4.75;;;3.83;;
53503;SDS011;39387;50.998;22.340;2022-08-21T11:40:41;4.32;;;3.65;;
53503;SDS011;39387;50.998;22.340;2022-08-21T11:43:17;4.22;;;3.83;;
53503;SDS011;39387;50.998;22.340;2022-08-21T11:45:49;4.47;;;4.07;;
53503;SDS011;39387;50.998;22.340;2022-08-21T11:48:25;4.30;;;3.90;;
53503;SDS011;39387;50.998;22.340;2022-08-21T11:50:59;4.18;;;3.78;;
53503;SDS011;39387;50.998;22.340;2022-08-21T11:53:28;4.38;;;3.97;;
53503;SDS011;39387;50.998;22.340;2022-08-21T11:55:59;4.45;;;3.95;;
53503;SDS011;39387;50.998;22.340;2022-08-21T11:58:30;4.25;;;3.85;;
53503;SDS011;39387;50.998;22.340;2022-08-21T12:01:03;4.50;;;4.10;;
53503;SDS011;39387;50.998;22.340;2022-08-21T12:03:35;4.38;;;3.97;;
53503;SDS011;39387;50.998;22.340;2022-08-21T12:06:06;4.43;;;4.03;;
53503;SDS011;39387;50.998;22.340;2022-08-21T12:08:36;4.22;;;3.90;;
53503;SDS011;39387;50.998;22.340;2022-08-21T12:11:05;3.67;;;3.38;;
53503;SDS011;39387;50.998;22.340;2022-08-21T12:16:06;4.15;;;3.75;;
53503;SDS011;39387;50.998;22.340;2022-08-21T12:18:36;3.90;;;3.60;;
53503;SDS011;39387;50.998;22.340;2022-08-21T12:21:05;3.78;;;3.47;;
53503;SDS011;39387;50.998;22.340;2022-08-21T12:23:46;4.40;;;3.97;;
53503;SDS011;39387;50.998;22.340;2022-08-21T12:26:21;4.03;;;3.72;;
53503;SDS011;39387;50.998;22.340;2022-08-21T12:28:51;4.70;;;3.85;;
53503;SDS011;39387;50.998;22.340;2022-08-21T12:34:01;4.05;;;3.42;;
53503;SDS011;39387;50.998;22.340;2022-08-21T12:36:35;4.90;;;3.50;;
53503;SDS011;39387;50.998;22.340;2022-08-21T12:39:11;4.20;;;3.80;;
53503;SDS011;39387;50.998;22.340;2022-08-21T12:41:44;4.22;;;3.83;;
53503;SDS011;39387;50.998;22.340;2022-08-21T12:44:14;3.75;;;3.20;;
53503;SDS011;39387;50.998;22.340;2022-08-21T12:49:14;4.07;;;3.67;;
53503;SDS011;39387;50.998;22.340;2022-08-21T12:51:48;4.10;;;3.70;;
53503;SDS011;39387;50.998;22.340;2022-08-21T12:54:23;4.07;;;3.42;;
53503;SDS011;39387;50.998;22.340;2022-08-21T12:56:56;3.83;;;3.40;;
53503;SDS011;39387;50.998;22.340;2022-08-21T12:59:25;3.53;;;3.22;;
53503;SDS011;39387;50.998;22.340;2022-08-21T13:01:53;3.63;;;3.33;;
53503;SDS011;39387;50.998;22.340;2022-08-21T13:04:24;5.10;;;3.30;;
53503;SDS011;39387;50.998;22.340;2022-08-21T13:06:58;3.30;;;3.03;;
53503;SDS011;39387;50.998;22.340;2022-08-21T13:09:27;3.80;;;3.45;;
53503;SDS011;39387;50.998;22.340;2022-08-21T13:11:55;4.20;;;3.80;;
53503;SDS011;39387;50.998;22.340;2022-08-21T13:14:25;3.40;;;3.10;;
53503;SDS011;39387;50.998;22.340;2022-08-21T13:16:56;4.10;;;3.70;;
53503;SDS011;39387;50.998;22.340;2022-08-21T13:19:27;3.45;;;3.20;;
53503;SDS011;39387;50.998;22.340;2022-08-21T13:21:55;3.78;;;3.30;;
53503;SDS011;39387;50.998;22.340;2022-08-21T13:24:24;3.58;;;3.28;;
53503;SDS011;39387;50.998;22.340;2022-08-21T13:26:54;3.42;;;3.13;;
53503;SDS011;39387;50.998;22.340;2022-08-21T13:29:22;3.63;;;3.33;;
53503;SDS011;39387;50.998;22.340;2022-08-21T13:31:55;3.53;;;3.20;;
53503;SDS011;39387;50.998;22.340;2022-08-21T13:34:25;3.20;;;2.90;;
53503;SDS011;39387;50.998;22.340;2022-08-21T13:36:57;3.63;;;3.33;;
53503;SDS011;39387;50.998;22.340;2022-08-21T13:39:26;3.90;;;3.45;;
53503;SDS011;39387;50.998;22.340;2022-08-21T13:41:54;3.63;;;3.33;;
53503;SDS011;39387;50.998;22.340;2022-08-21T13:44:24;3.70;;;3.40;;
53503;SDS011;39387;50.998;22.340;2022-08-21T13:47:00;3.45;;;3.15;;
53503;SDS011;39387;50.998;22.340;2022-08-21T13:49:32;3.25;;;2.97;;
53503;SDS011;39387;50.998;22.340;2022-08-21T13:52:01;3.40;;;3.03;;
53503;SDS011;39387;50.998;22.340;2022-08-21T13:54:33;3.58;;;3.28;;
53503;SDS011;39387;50.998;22.340;2022-08-21T13:57:02;3.20;;;2.90;;
53503;SDS011;39387;50.998;22.340;2022-08-21T13:59:31;3.80;;;3.45;;
53503;SDS011;39387;50.998;22.340;2022-08-21T14:04:35;4.03;;;3.60;;
53503;SDS011;39387;50.998;22.340;2022-08-21T14:07:13;3.60;;;3.30;;
53503;SDS011;39387;50.998;22.340;2022-08-21T14:09:43;3.30;;;3.03;;
53503;SDS011;39387;50.998;22.340;2022-08-21T14:12:12;3.88;;;3.30;;
53503;SDS011;39387;50.998;22.340;2022-08-21T14:14:41;4.93;;;3.55;;
53503;SDS011;39387;50.998;22.340;2022-08-21T14:17:09;4.07;;;3.25;;
53503;SDS011;39387;50.998;22.340;2022-08-21T14:19:43;3.90;;;3.25;;
53503;SDS011;39387;50.998;22.340;2022-08-21T14:22:23;3.50;;;3.20;;
53503;SDS011;39387;50.998;22.340;2022-08-21T14:24:59;3.63;;;3.33;;
53503;SDS011;39387;50.998;22.340;2022-08-21T14:27:28;3.75;;;3.35;;
53503;SDS011;39387;50.998;22.340;2022-08-21T14:29:58;3.17;;;2.97;;
53503;SDS011;39387;50.998;22.340;2022-08-21T14:34:57;3.03;;;2.83;;
53503;SDS011;39387;50.998;22.340;2022-08-21T14:37:25;3.53;;;3.22;;
53503;SDS011;39387;50.998;22.340;2022-08-21T14:39:52;3.00;;;2.70;;
53503;SDS011;39387;50.998;22.340;2022-08-21T14:42:20;3.97;;;3.28;;
53503;SDS011;39387;50.998;22.340;2022-08-21T14:44:47;3.15;;;2.85;;
53503;SDS011;39387;50.998;22.340;2022-08-21T14:47:15;3.40;;;3.08;;
53503;SDS011;39387;50.998;22.340;2022-08-21T14:49:42;3.15;;;2.92;;
53503;SDS011;39387;50.998;22.340;2022-08-21T14:52:13;3.83;;;3.45;;
53503;SDS011;39387;50.998;22.340;2022-08-21T14:54:40;3.47;;;3.13;;
53503;SDS011;39387;50.998;22.340;2022-08-21T14:57:11;3.50;;;3.10;;
53503;SDS011;39387;50.998;22.340;2022-08-21T14:59:50;3.70;;;3.40;;
53503;SDS011;39387;50.998;22.340;2022-08-21T15:02:18;3.40;;;3.10;;
53503;SDS011;39387;50.998;22.340;2022-08-21T15:04:46;3.67;;;3.38;;
53503;SDS011;39387;50.998;22.340;2022-08-21T15:07:15;3.03;;;2.83;;
53503;SDS011;39387;50.998;22.340;2022-08-21T15:09:43;3.85;;;3.55;;